sensor_id;sensor_type;location;lat;lon;timestamp;temperature;humidity
15906;DHT22;8051;50.820;4.884;2022-09-17T00:00:16;9.10;99.90
15906;DHT22;8051;50.820;4.884;2022-09-17T00:02:43;9.10;99.90
15906;DHT22;8051;50.820;4.884;2022-09-17T00:05:11;9.10;99.90
15906;DHT22;8051;50.820;4.884;2022-09-17T00:07:37;9.10;99.90
15906;DHT22;8051;50.820;4.884;2022-09-17T00:10:05;9.10;99.90
15906;DHT22;8051;50.820;4.884;2022-09-17T00:12:34;9.10;99.90
15906;DHT22;8051;50.820;4.884;2022-09-17T00:15:01;9.10;99.90
15906;DHT22;8051;50.820;4.884;2022-09-17T00:17:27;9.10;99.90
15906;DHT22;8051;50.820;4.884;2022-09-17T00:19:54;9.20;99.90
15906;DHT22;8051;50.820;4.884;2022-09-17T00:22:21;9.20;99.90
15906;DHT22;8051;50.820;4.884;2022-09-17T00:24:48;9.30;99.90
15906;DHT22;8051;50.820;4.884;2022-09-17T00:27:15;9.30;99.90
15906;DHT22;8051;50.820;4.884;2022-09-17T00:29:43;9.30;99.90
15906;DHT22;8051;50.820;4.884;2022-09-17T00:32:10;9.40;99.90
15906;DHT22;8051;50.820;4.884;2022-09-17T00:34:37;9.50;99.90
15906;DHT22;8051;50.820;4.884;2022-09-17T00:37:04;9.60;99.90
15906;DHT22;8051;50.820;4.884;2022-09-17T00:39:30;9.60;99.90
15906;DHT22;8051;50.820;4.884;2022-09-17T00:41:57;9.60;99.90
15906;DHT22;8051;50.820;4.884;2022-09-17T00:44:47;9.50;99.90
15906;DHT22;8051;50.820;4.884;2022-09-17T00:47:22;9.50;99.90
15906;DHT22;8051;50.820;4.884;2022-09-17T00:49:52;9.60;99.90
15906;DHT22;8051;50.820;4.884;2022-09-17T00:52:24;9.60;99.90
15906;DHT22;8051;50.820;4.884;2022-09-17T00:54:55;9.60;99.90
15906;DHT22;8051;50.820;4.884;2022-09-17T00:57:23;9.50;99.90
15906;DHT22;8051;50.820;4.884;2022-09-17T00:59:52;9.50;99.90
15906;DHT22;8051;50.820;4.884;2022-09-17T01:02:19;9.50;99.90
15906;DHT22;8051;50.820;4.884;2022-09-17T01:04:46;9.50;99.90
15906;DHT22;8051;50.820;4.884;2022-09-17T01:07:23;9.50;99.90
15906;DHT22;8051;50.820;4.884;2022-09-17T01:09:53;9.50;99.90
15906;DHT22;8051;50.820;4.884;2022-09-17T01:12:36;9.60;99.90
15906;DHT22;8051;50.820;4.884;2022-09-17T01:15:18;9.60;99.90
15906;DHT22;8051;50.820;4.884;2022-09-17T01:18:03;9.60;99.90
15906;DHT22;8051;50.820;4.884;2022-09-17T01:21:04;9.60;99.90
15906;DHT22;8051;50.820;4.884;2022-09-17T01:24:00;9.60;99.90
15906;DHT22;8051;50.820;4.884;2022-09-17T01:29:47;9.60;99.90
15906;DHT22;8051;50.820;4.884;2022-09-17T01:32:23;9.60;99.90
15906;DHT22;8051;50.820;4.884;2022-09-17T01:34:55;9.70;99.90
15906;DHT22;8051;50.820;4.884;2022-09-17T01:37:29;9.70;99.90
15906;DHT22;8051;50.820;4.884;2022-09-17T01:40:02;9.80;99.90
15906;DHT22;8051;50.820;4.884;2022-09-17T01:42:35;9.70;99.90
15906;DHT22;8051;50.820;4.884;2022-09-17T01:45:06;9.70;99.90
15906;DHT22;8051;50.820;4.884;2022-09-17T01:47:38;9.70;99.90
15906;DHT22;8051;50.820;4.884;2022-09-17T01:50:10;9.60;99.90
15906;DHT22;8051;50.820;4.884;2022-09-17T01:52:41;9.70;99.90
15906;DHT22;8051;50.820;4.884;2022-09-17T01:55:11;9.70;99.90
15906;DHT22;8051;50.820;4.884;2022-09-17T01:57:42;9.70;99.90
15906;DHT22;8051;50.820;4.884;2022-09-17T02:00:11;9.60;99.90
15906;DHT22;8051;50.820;4.884;2022-09-17T02:02:44;9.60;99.90
15906;DHT22;8051;50.820;4.884;2022-09-17T02:05:16;9.70;99.90
15906;DHT22;8051;50.820;4.884;2022-09-17T02:07:49;9.60;99.90
15906;DHT22;8051;50.820;4.884;2022-09-17T02:10:20;9.60;99.90
15906;DHT22;8051;50.820;4.884;2022-09-17T02:12:52;9.60;99.90
15906;DHT22;8051;50.820;4.884;2022-09-17T02:15:23;9.70;99.90
15906;DHT22;8051;50.820;4.884;2022-09-17T02:17:56;9.80;99.90
15906;DHT22;8051;50.820;4.884;2022-09-17T02:20:32;9.80;99.90
15906;DHT22;8051;50.820;4.884;2022-09-17T02:23:04;9.80;99.90
15906;DHT22;8051;50.820;4.884;2022-09-17T02:25:37;9.80;99.90
15906;DHT22;8051;50.820;4.884;2022-09-17T02:28:11;9.80;99.90
15906;DHT22;8051;50.820;4.884;2022-09-17T02:30:42;9.80;99.90
15906;DHT22;8051;50.820;4.884;2022-09-17T02:33:12;9.70;99.90
15906;DHT22;8051;50.820;4.884;2022-09-17T02:35:40;9.70;99.90
15906;DHT22;8051;50.820;4.884;2022-09-17T02:38:08;9.70;99.90
15906;DHT22;8051;50.820;4.884;2022-09-17T02:40:45;9.80;99.90
15906;DHT22;8051;50.820;4.884;2022-09-17T02:43:20;9.80;99.90
15906;DHT22;8051;50.820;4.884;2022-09-17T02:46:01;9.80;99.90
15906;DHT22;8051;50.820;4.884;2022-09-17T02:51:32;9.80;99.90
15906;DHT22;8051;50.820;4.884;2022-09-17T02:54:07;9.80;99.90
15906;DHT22;8051;50.820;4.884;2022-09-17T02:56:43;9.90;99.90
15906;DHT22;8051;50.820;4.884;2022-09-17T02:59:16;9.90;99.90
15906;DHT22;8051;50.820;4.884;2022-09-17T03:01:50;9.90;99.90
15906;DHT22;8051;50.820;4.884;2022-09-17T03:04:21;9.90;99.90
15906;DHT22;8051;50.820;4.884;2022-09-17T03:06:51;9.90;99.90
15906;DHT22;8051;50.820;4.884;2022-09-17T03:09:18;9.90;99.90
15906;DHT22;8051;50.820;4.884;2022-09-17T03:11:45;9.90;99.90
15906;DHT22;8051;50.820;4.884;2022-09-17T03:14:12;9.90;99.90
15906;DHT22;8051;50.820;4.884;2022-09-17T03:16:38;9.90;99.90
15906;DHT22;8051;50.820;4.884;2022-09-17T03:19:05;9.90;99.90
15906;DHT22;8051;50.820;4.884;2022-09-17T03:21:34;9.80;99.90
15906;DHT22;8051;50.820;4.884;2022-09-17T03:24:01;9.80;99.90
15906;DHT22;8051;50.820;4.884;2022-09-17T03:26:28;9.70;99.90
15906;DHT22;8051;50.820;4.884;2022-09-17T03:28:55;9.60;99.90
15906;DHT22;8051;50.820;4.884;2022-09-17T03:31:23;9.60;99.90
15906;DHT22;8051;50.820;4.884;2022-09-17T03:33:49;9.60;99.90
15906;DHT22;8051;50.820;4.884;2022-09-17T03:36:16;9.50;99.90
15906;DHT22;8051;50.820;4.884;2022-09-17T03:38:44;9.50;99.90
15906;DHT22;8051;50.820;4.884;2022-09-17T03:41:11;9.40;99.90
15906;DHT22;8051;50.820;4.884;2022-09-17T03:43:38;9.40;99.90
15906;DHT22;8051;50.820;4.884;2022-09-17T03:46:05;9.30;99.90
15906;DHT22;8051;50.820;4.884;2022-09-17T03:48:32;9.30;99.90
15906;DHT22;8051;50.820;4.884;2022-09-17T03:51:02;9.30;99.90
15906;DHT22;8051;50.820;4.884;2022-09-17T03:53:28;9.20;99.90
15906;DHT22;8051;50.820;4.884;2022-09-17T03:55:58;9.20;99.90
15906;DHT22;8051;50.820;4.884;2022-09-17T03:58:26;9.20;99.90
15906;DHT22;8051;50.820;4.884;2022-09-17T04:00:53;9.20;99.90
15906;DHT22;8051;50.820;4.884;2022-09-17T04:03:22;9.10;99.90
15906;DHT22;8051;50.820;4.884;2022-09-17T04:05:49;9.10;99.90
15906;DHT22;8051;50.820;4.884;2022-09-17T04:08:17;9.10;99.90
15906;DHT22;8051;50.820;4.884;2022-09-17T04:10:44;9.10;99.90
15906;DHT22;8051;50.820;4.884;2022-09-17T04:13:13;9.10;99.90
15906;DHT22;8051;50.820;4.884;2022-09-17T04:15:41;9.10;99.90
15906;DHT22;8051;50.820;4.884;2022-09-17T04:18:08;9.10;99.90
15906;DHT22;8051;50.820;4.884;2022-09-17T04:20:35;9.00;99.90
15906;DHT22;8051;50.820;4.884;2022-09-17T04:23:03;9.00;99.90
15906;DHT22;8051;50.820;4.884;2022-09-17T04:25:31;9.00;99.90
15906;DHT22;8051;50.820;4.884;2022-09-17T04:27:58;9.00;99.90
15906;DHT22;8051;50.820;4.884;2022-09-17T04:30:26;9.00;99.90
15906;DHT22;8051;50.820;4.884;2022-09-17T04:32:53;9.00;99.90
15906;DHT22;8051;50.820;4.884;2022-09-17T04:35:20;9.00;99.90
15906;DHT22;8051;50.820;4.884;2022-09-17T04:37:51;8.90;99.90
15906;DHT22;8051;50.820;4.884;2022-09-17T04:40:19;8.90;99.90
15906;DHT22;8051;50.820;4.884;2022-09-17T04:42:45;8.90;99.90
15906;DHT22;8051;50.820;4.884;2022-09-17T04:45:13;8.90;99.90
15906;DHT22;8051;50.820;4.884;2022-09-17T04:47:41;9.00;99.90
15906;DHT22;8051;50.820;4.884;2022-09-17T04:50:08;9.00;99.90
15906;DHT22;8051;50.820;4.884;2022-09-17T04:52:35;9.00;99.90
15906;DHT22;8051;50.820;4.884;2022-09-17T04:55:02;9.00;99.90
15906;DHT22;8051;50.820;4.884;2022-09-17T04:57:29;9.00;99.90
15906;DHT22;8051;50.820;4.884;2022-09-17T04:59:56;9.00;99.90
15906;DHT22;8051;50.820;4.884;2022-09-17T05:02:23;9.00;99.90
15906;DHT22;8051;50.820;4.884;2022-09-17T05:04:51;9.00;99.90
15906;DHT22;8051;50.820;4.884;2022-09-17T05:07:18;9.10;99.90
15906;DHT22;8051;50.820;4.884;2022-09-17T05:09:45;9.10;99.90
15906;DHT22;8051;50.820;4.884;2022-09-17T05:12:12;9.10;99.90
15906;DHT22;8051;50.820;4.884;2022-09-17T05:14:39;9.10;99.90
15906;DHT22;8051;50.820;4.884;2022-09-17T05:17:06;9.10;99.90
15906;DHT22;8051;50.820;4.884;2022-09-17T05:19:32;9.30;99.90
15906;DHT22;8051;50.820;4.884;2022-09-17T05:22:01;9.20;99.90
15906;DHT22;8051;50.820;4.884;2022-09-17T05:24:27;9.20;99.90
15906;DHT22;8051;50.820;4.884;2022-09-17T05:26:54;9.20;99.90
15906;DHT22;8051;50.820;4.884;2022-09-17T05:29:21;9.20;99.90
15906;DHT22;8051;50.820;4.884;2022-09-17T05:31:48;9.20;99.90
15906;DHT22;8051;50.820;4.884;2022-09-17T05:34:15;9.30;99.90
15906;DHT22;8051;50.820;4.884;2022-09-17T05:36:42;9.30;99.90
15906;DHT22;8051;50.820;4.884;2022-09-17T05:39:10;9.30;99.90
15906;DHT22;8051;50.820;4.884;2022-09-17T05:41:37;9.30;99.90
15906;DHT22;8051;50.820;4.884;2022-09-17T05:44:04;9.40;99.90
15906;DHT22;8051;50.820;4.884;2022-09-17T05:46:30;9.30;99.90
15906;DHT22;8051;50.820;4.884;2022-09-17T05:48:57;9.40;99.90
15906;DHT22;8051;50.820;4.884;2022-09-17T05:51:24;9.40;99.90
15906;DHT22;8051;50.820;4.884;2022-09-17T05:53:53;9.40;99.90
15906;DHT22;8051;50.820;4.884;2022-09-17T05:56:21;9.40;99.90
15906;DHT22;8051;50.820;4.884;2022-09-17T05:58:49;9.50;99.90
15906;DHT22;8051;50.820;4.884;2022-09-17T06:01:16;9.50;99.90
15906;DHT22;8051;50.820;4.884;2022-09-17T06:03:43;9.50;99.90
15906;DHT22;8051;50.820;4.884;2022-09-17T06:06:09;9.50;99.90
15906;DHT22;8051;50.820;4.884;2022-09-17T06:08:36;9.50;99.90
15906;DHT22;8051;50.820;4.884;2022-09-17T06:11:04;9.60;99.90
15906;DHT22;8051;50.820;4.884;2022-09-17T06:13:32;9.60;99.90
15906;DHT22;8051;50.820;4.884;2022-09-17T06:16:00;9.60;99.90
15906;DHT22;8051;50.820;4.884;2022-09-17T06:18:28;9.70;99.90
15906;DHT22;8051;50.820;4.884;2022-09-17T06:20:56;9.70;99.90
15906;DHT22;8051;50.820;4.884;2022-09-17T06:23:24;9.70;99.90
15906;DHT22;8051;50.820;4.884;2022-09-17T06:25:52;9.80;99.90
15906;DHT22;8051;50.820;4.884;2022-09-17T06:28:20;9.80;99.90
15906;DHT22;8051;50.820;4.884;2022-09-17T06:30:48;9.90;99.90
15906;DHT22;8051;50.820;4.884;2022-09-17T06:33:17;9.90;99.90
15906;DHT22;8051;50.820;4.884;2022-09-17T06:35:44;10.00;99.90
15906;DHT22;8051;50.820;4.884;2022-09-17T06:38:11;10.10;99.90
15906;DHT22;8051;50.820;4.884;2022-09-17T06:40:38;10.10;99.90
15906;DHT22;8051;50.820;4.884;2022-09-17T06:43:05;10.20;99.90
15906;DHT22;8051;50.820;4.884;2022-09-17T06:45:32;10.20;99.90
15906;DHT22;8051;50.820;4.884;2022-09-17T06:48:04;10.20;99.90
15906;DHT22;8051;50.820;4.884;2022-09-17T06:50:31;10.30;99.90
15906;DHT22;8051;50.820;4.884;2022-09-17T06:52:58;10.30;99.90
15906;DHT22;8051;50.820;4.884;2022-09-17T06:55:25;10.40;99.90
15906;DHT22;8051;50.820;4.884;2022-09-17T06:57:52;10.40;99.90
15906;DHT22;8051;50.820;4.884;2022-09-17T07:00:20;10.40;99.90
15906;DHT22;8051;50.820;4.884;2022-09-17T07:02:54;10.30;99.90
15906;DHT22;8051;50.820;4.884;2022-09-17T07:05:24;10.30;99.90
15906;DHT22;8051;50.820;4.884;2022-09-17T07:07:51;10.40;99.90
15906;DHT22;8051;50.820;4.884;2022-09-17T07:10:18;10.40;99.90
15906;DHT22;8051;50.820;4.884;2022-09-17T07:12:45;10.30;99.90
15906;DHT22;8051;50.820;4.884;2022-09-17T07:15:12;10.30;99.90
15906;DHT22;8051;50.820;4.884;2022-09-17T07:17:40;10.30;99.90
15906;DHT22;8051;50.820;4.884;2022-09-17T07:20:09;10.40;99.90
15906;DHT22;8051;50.820;4.884;2022-09-17T07:22:38;10.50;99.90
15906;DHT22;8051;50.820;4.884;2022-09-17T07:25:06;10.50;99.90
15906;DHT22;8051;50.820;4.884;2022-09-17T07:27:33;10.60;99.90
15906;DHT22;8051;50.820;4.884;2022-09-17T07:30:00;10.70;99.90
15906;DHT22;8051;50.820;4.884;2022-09-17T07:32:28;10.80;99.90
15906;DHT22;8051;50.820;4.884;2022-09-17T07:34:56;11.00;99.90
15906;DHT22;8051;50.820;4.884;2022-09-17T07:37:23;11.10;99.90
15906;DHT22;8051;50.820;4.884;2022-09-17T07:39:51;11.30;99.90
15906;DHT22;8051;50.820;4.884;2022-09-17T07:42:18;11.70;99.90
15906;DHT22;8051;50.820;4.884;2022-09-17T07:44:45;11.90;99.90
15906;DHT22;8051;50.820;4.884;2022-09-17T07:47:12;11.90;99.90
15906;DHT22;8051;50.820;4.884;2022-09-17T07:49:39;11.60;99.90
15906;DHT22;8051;50.820;4.884;2022-09-17T07:52:06;11.20;99.90
15906;DHT22;8051;50.820;4.884;2022-09-17T07:54:33;11.00;99.90
15906;DHT22;8051;50.820;4.884;2022-09-17T07:57:03;10.90;99.90
15906;DHT22;8051;50.820;4.884;2022-09-17T07:59:29;10.90;99.90
15906;DHT22;8051;50.820;4.884;2022-09-17T08:01:56;10.70;99.90
15906;DHT22;8051;50.820;4.884;2022-09-17T08:04:23;10.80;99.90
15906;DHT22;8051;50.820;4.884;2022-09-17T08:06:50;10.90;99.90
15906;DHT22;8051;50.820;4.884;2022-09-17T08:09:17;11.10;99.90
15906;DHT22;8051;50.820;4.884;2022-09-17T08:11:44;11.20;99.90
15906;DHT22;8051;50.820;4.884;2022-09-17T08:14:14;11.30;99.90
15906;DHT22;8051;50.820;4.884;2022-09-17T08:16:41;11.40;99.90
15906;DHT22;8051;50.820;4.884;2022-09-17T08:19:10;11.50;99.90
15906;DHT22;8051;50.820;4.884;2022-09-17T08:21:37;11.80;99.90
15906;DHT22;8051;50.820;4.884;2022-09-17T08:24:04;12.00;99.90
15906;DHT22;8051;50.820;4.884;2022-09-17T08:26:31;12.00;99.90
15906;DHT22;8051;50.820;4.884;2022-09-17T08:28:57;11.90;99.90
15906;DHT22;8051;50.820;4.884;2022-09-17T08:31:26;11.80;99.90
15906;DHT22;8051;50.820;4.884;2022-09-17T08:33:54;11.80;99.90
15906;DHT22;8051;50.820;4.884;2022-09-17T08:36:22;11.90;99.90
15906;DHT22;8051;50.820;4.884;2022-09-17T08:38:52;12.20;99.90
15906;DHT22;8051;50.820;4.884;2022-09-17T08:41:23;12.30;99.90
15906;DHT22;8051;50.820;4.884;2022-09-17T08:44:01;12.50;99.90
15906;DHT22;8051;50.820;4.884;2022-09-17T08:46:39;12.70;99.90
15906;DHT22;8051;50.820;4.884;2022-09-17T08:49:25;12.30;99.90
15906;DHT22;8051;50.820;4.884;2022-09-17T08:52:12;11.70;99.90
15906;DHT22;8051;50.820;4.884;2022-09-17T08:54:50;11.50;99.90
15906;DHT22;8051;50.820;4.884;2022-09-17T08:57:24;11.50;99.90
15906;DHT22;8051;50.820;4.884;2022-09-17T08:59:58;11.50;99.90
15906;DHT22;8051;50.820;4.884;2022-09-17T09:02:44;11.40;99.90
15906;DHT22;8051;50.820;4.884;2022-09-17T09:05:16;11.50;99.90
15906;DHT22;8051;50.820;4.884;2022-09-17T09:07:48;11.70;99.90
15906;DHT22;8051;50.820;4.884;2022-09-17T09:10:20;11.90;99.90
15906;DHT22;8051;50.820;4.884;2022-09-17T09:12:50;12.20;99.90
15906;DHT22;8051;50.820;4.884;2022-09-17T09:15:30;12.20;99.90
15906;DHT22;8051;50.820;4.884;2022-09-17T09:18:04;12.30;99.90
15906;DHT22;8051;50.820;4.884;2022-09-17T09:20:42;12.50;99.90
15906;DHT22;8051;50.820;4.884;2022-09-17T09:23:18;12.80;99.90
15906;DHT22;8051;50.820;4.884;2022-09-17T09:25:56;12.90;99.90
15906;DHT22;8051;50.820;4.884;2022-09-17T09:28:41;13.00;99.90
15906;DHT22;8051;50.820;4.884;2022-09-17T09:31:45;12.90;99.90
15906;DHT22;8051;50.820;4.884;2022-09-17T09:34:15;12.90;99.90
15906;DHT22;8051;50.820;4.884;2022-09-17T09:36:43;12.80;99.90
15906;DHT22;8051;50.820;4.884;2022-09-17T09:39:14;12.60;99.90
15906;DHT22;8051;50.820;4.884;2022-09-17T09:41:46;12.40;99.90
15906;DHT22;8051;50.820;4.884;2022-09-17T09:44:15;12.10;99.90
15906;DHT22;8051;50.820;4.884;2022-09-17T09:46:57;12.00;99.90
15906;DHT22;8051;50.820;4.884;2022-09-17T09:49:39;12.00;99.90
15906;DHT22;8051;50.820;4.884;2022-09-17T09:52:25;12.00;99.90
15906;DHT22;8051;50.820;4.884;2022-09-17T09:55:09;12.00;99.90
15906;DHT22;8051;50.820;4.884;2022-09-17T09:57:44;12.10;99.90
15906;DHT22;8051;50.820;4.884;2022-09-17T10:00:21;12.20;99.90
15906;DHT22;8051;50.820;4.884;2022-09-17T10:02:53;12.30;99.90
15906;DHT22;8051;50.820;4.884;2022-09-17T10:05:23;12.20;99.90
15906;DHT22;8051;50.820;4.884;2022-09-17T10:07:50;12.10;99.90
15906;DHT22;8051;50.820;4.884;2022-09-17T10:10:17;11.80;99.90
15906;DHT22;8051;50.820;4.884;2022-09-17T10:12:44;11.70;99.90
15906;DHT22;8051;50.820;4.884;2022-09-17T10:15:24;11.60;99.90
15906;DHT22;8051;50.820;4.884;2022-09-17T10:18:10;11.60;99.90
15906;DHT22;8051;50.820;4.884;2022-09-17T10:20:50;11.70;99.90
15906;DHT22;8051;50.820;4.884;2022-09-17T10:23:18;12.20;99.90
15906;DHT22;8051;50.820;4.884;2022-09-17T10:25:46;12.80;99.90
15906;DHT22;8051;50.820;4.884;2022-09-17T10:28:36;13.00;99.90
15906;DHT22;8051;50.820;4.884;2022-09-17T10:31:05;13.20;99.90
15906;DHT22;8051;50.820;4.884;2022-09-17T10:33:38;13.20;99.90
15906;DHT22;8051;50.820;4.884;2022-09-17T10:36:11;13.10;99.90
15906;DHT22;8051;50.820;4.884;2022-09-17T10:38:40;12.80;99.90
15906;DHT22;8051;50.820;4.884;2022-09-17T10:41:09;12.30;99.90
15906;DHT22;8051;50.820;4.884;2022-09-17T10:43:38;11.90;99.90
15906;DHT22;8051;50.820;4.884;2022-09-17T10:46:08;11.60;99.90
15906;DHT22;8051;50.820;4.884;2022-09-17T10:48:39;11.20;99.90
15906;DHT22;8051;50.820;4.884;2022-09-17T10:51:08;10.80;99.90
15906;DHT22;8051;50.820;4.884;2022-09-17T10:53:52;10.70;99.90
15906;DHT22;8051;50.820;4.884;2022-09-17T10:56:25;10.60;99.90
15906;DHT22;8051;50.820;4.884;2022-09-17T10:59:00;10.80;99.90
15906;DHT22;8051;50.820;4.884;2022-09-17T11:01:43;10.70;99.90
15906;DHT22;8051;50.820;4.884;2022-09-17T11:04:23;10.80;99.90
15906;DHT22;8051;50.820;4.884;2022-09-17T11:07:15;10.80;99.90
15906;DHT22;8051;50.820;4.884;2022-09-17T11:09:51;10.90;99.90
15906;DHT22;8051;50.820;4.884;2022-09-17T11:12:33;11.20;99.90
15906;DHT22;8051;50.820;4.884;2022-09-17T11:15:09;11.50;99.90
15906;DHT22;8051;50.820;4.884;2022-09-17T11:17:59;12.00;99.90
15906;DHT22;8051;50.820;4.884;2022-09-17T11:20:40;12.20;99.90
15906;DHT22;8051;50.820;4.884;2022-09-17T11:23:29;12.20;99.90
15906;DHT22;8051;50.820;4.884;2022-09-17T11:25:59;11.80;99.90
15906;DHT22;8051;50.820;4.884;2022-09-17T11:28:38;11.60;99.90
15906;DHT22;8051;50.820;4.884;2022-09-17T11:31:17;11.40;99.90
15906;DHT22;8051;50.820;4.884;2022-09-17T11:34:12;11.50;99.90
15906;DHT22;8051;50.820;4.884;2022-09-17T11:36:52;11.50;99.90
15906;DHT22;8051;50.820;4.884;2022-09-17T11:39:25;11.60;99.90
15906;DHT22;8051;50.820;4.884;2022-09-17T11:41:54;11.60;99.90
15906;DHT22;8051;50.820;4.884;2022-09-17T11:44:27;11.50;99.90
15906;DHT22;8051;50.820;4.884;2022-09-17T11:46:59;11.40;99.90
15906;DHT22;8051;50.820;4.884;2022-09-17T11:49:36;11.50;99.90
15906;DHT22;8051;50.820;4.884;2022-09-17T11:52:07;11.80;99.90
15906;DHT22;8051;50.820;4.884;2022-09-17T11:54:41;11.90;99.90
15906;DHT22;8051;50.820;4.884;2022-09-17T11:57:14;12.10;99.90
15906;DHT22;8051;50.820;4.884;2022-09-17T11:59:46;12.10;99.90
15906;DHT22;8051;50.820;4.884;2022-09-17T12:02:20;12.00;99.90
15906;DHT22;8051;50.820;4.884;2022-09-17T12:04:54;11.80;99.90
15906;DHT22;8051;50.820;4.884;2022-09-17T12:07:37;11.80;99.90
15906;DHT22;8051;50.820;4.884;2022-09-17T12:10:22;11.90;99.90
15906;DHT22;8051;50.820;4.884;2022-09-17T12:12:56;11.90;99.90
15906;DHT22;8051;50.820;4.884;2022-09-17T12:15:27;12.00;99.90
15906;DHT22;8051;50.820;4.884;2022-09-17T12:18:01;11.90;99.90
15906;DHT22;8051;50.820;4.884;2022-09-17T12:20:31;12.10;99.90
15906;DHT22;8051;50.820;4.884;2022-09-17T12:23:02;12.30;99.90
15906;DHT22;8051;50.820;4.884;2022-09-17T12:25:36;12.70;99.90
15906;DHT22;8051;50.820;4.884;2022-09-17T12:28:09;13.10;99.90
15906;DHT22;8051;50.820;4.884;2022-09-17T12:30:39;13.20;99.90
15906;DHT22;8051;50.820;4.884;2022-09-17T12:33:14;13.30;99.90
15906;DHT22;8051;50.820;4.884;2022-09-17T12:36:18;13.50;99.90
15906;DHT22;8051;50.820;4.884;2022-09-17T12:41:47;13.90;99.90
15906;DHT22;8051;50.820;4.884;2022-09-17T12:44:44;14.10;99.90
15906;DHT22;8051;50.820;4.884;2022-09-17T12:50:20;14.60;99.90
15906;DHT22;8051;50.820;4.884;2022-09-17T12:53:07;14.60;99.90
15906;DHT22;8051;50.820;4.884;2022-09-17T12:55:49;14.60;99.90
15906;DHT22;8051;50.820;4.884;2022-09-17T12:58:31;14.50;99.90
15906;DHT22;8051;50.820;4.884;2022-09-17T13:01:06;14.50;99.90
15906;DHT22;8051;50.820;4.884;2022-09-17T13:03:39;14.50;99.90
15906;DHT22;8051;50.820;4.884;2022-09-17T13:06:25;14.60;99.90
15906;DHT22;8051;50.820;4.884;2022-09-17T13:09:23;14.70;99.90
15906;DHT22;8051;50.820;4.884;2022-09-17T13:12:09;14.70;99.90
15906;DHT22;8051;50.820;4.884;2022-09-17T13:14:59;14.50;99.90
15906;DHT22;8051;50.820;4.884;2022-09-17T13:17:34;14.30;99.90
15906;DHT22;8051;50.820;4.884;2022-09-17T13:20:13;14.20;99.90
15906;DHT22;8051;50.820;4.884;2022-09-17T13:22:44;14.00;99.90
15906;DHT22;8051;50.820;4.884;2022-09-17T13:25:13;14.00;99.90
15906;DHT22;8051;50.820;4.884;2022-09-17T13:27:42;14.30;99.90
15906;DHT22;8051;50.820;4.884;2022-09-17T13:30:11;14.50;99.90
15906;DHT22;8051;50.820;4.884;2022-09-17T13:32:48;14.80;99.90
15906;DHT22;8051;50.820;4.884;2022-09-17T13:35:47;14.90;99.90
15906;DHT22;8051;50.820;4.884;2022-09-17T13:38:18;14.90;99.90
15906;DHT22;8051;50.820;4.884;2022-09-17T13:40:45;14.90;99.90
15906;DHT22;8051;50.820;4.884;2022-09-17T13:43:15;14.90;99.90
15906;DHT22;8051;50.820;4.884;2022-09-17T13:46:07;15.00;99.90
15906;DHT22;8051;50.820;4.884;2022-09-17T13:48:44;15.10;99.90
15906;DHT22;8051;50.820;4.884;2022-09-17T13:54:14;15.40;99.90
15906;DHT22;8051;50.820;4.884;2022-09-17T13:56:44;15.50;99.90
15906;DHT22;8051;50.820;4.884;2022-09-17T13:59:14;15.30;99.90
15906;DHT22;8051;50.820;4.884;2022-09-17T14:02:00;14.90;99.90
15906;DHT22;8051;50.820;4.884;2022-09-17T14:04:45;14.30;99.90
15906;DHT22;8051;50.820;4.884;2022-09-17T14:07:32;13.40;99.90
15906;DHT22;8051;50.820;4.884;2022-09-17T14:10:01;12.70;99.90
15906;DHT22;8051;50.820;4.884;2022-09-17T14:12:57;12.40;99.90
15906;DHT22;8051;50.820;4.884;2022-09-17T14:15:58;12.00;99.90
15906;DHT22;8051;50.820;4.884;2022-09-17T14:21:24;11.40;99.90
15906;DHT22;8051;50.820;4.884;2022-09-17T14:23:55;11.50;99.90
15906;DHT22;8051;50.820;4.884;2022-09-17T14:29:26;11.80;99.90
15906;DHT22;8051;50.820;4.884;2022-09-17T14:31:57;12.00;99.90
15906;DHT22;8051;50.820;4.884;2022-09-17T14:34:26;12.30;99.90
15906;DHT22;8051;50.820;4.884;2022-09-17T14:36:54;12.70;99.90
15906;DHT22;8051;50.820;4.884;2022-09-17T14:39:23;13.10;99.90
15906;DHT22;8051;50.820;4.884;2022-09-17T14:41:53;13.30;99.90
15906;DHT22;8051;50.820;4.884;2022-09-17T14:44:23;13.30;99.90
15906;DHT22;8051;50.820;4.884;2022-09-17T14:46:55;13.40;99.90
15906;DHT22;8051;50.820;4.884;2022-09-17T14:49:26;13.50;99.90
15906;DHT22;8051;50.820;4.884;2022-09-17T14:51:54;13.70;99.90
15906;DHT22;8051;50.820;4.884;2022-09-17T14:54:23;13.90;99.90
15906;DHT22;8051;50.820;4.884;2022-09-17T14:56:53;14.00;99.90
15906;DHT22;8051;50.820;4.884;2022-09-17T15:02:31;14.20;99.90
15906;DHT22;8051;50.820;4.884;2022-09-17T15:05:00;14.20;99.90
15906;DHT22;8051;50.820;4.884;2022-09-17T15:07:29;14.30;99.90
15906;DHT22;8051;50.820;4.884;2022-09-17T15:10:06;14.20;99.90
15906;DHT22;8051;50.820;4.884;2022-09-17T15:12:34;14.30;99.90
15906;DHT22;8051;50.820;4.884;2022-09-17T15:15:01;14.40;99.90
15906;DHT22;8051;50.820;4.884;2022-09-17T15:17:29;14.50;99.90
15906;DHT22;8051;50.820;4.884;2022-09-17T15:20:00;14.50;99.90
15906;DHT22;8051;50.820;4.884;2022-09-17T15:22:31;14.40;99.90
15906;DHT22;8051;50.820;4.884;2022-09-17T15:25:01;14.40;99.90
15906;DHT22;8051;50.820;4.884;2022-09-17T15:27:33;14.30;99.90
15906;DHT22;8051;50.820;4.884;2022-09-17T15:30:03;14.30;99.90
15906;DHT22;8051;50.820;4.884;2022-09-17T15:32:31;14.20;99.90
15906;DHT22;8051;50.820;4.884;2022-09-17T15:35:21;14.00;99.90
15906;DHT22;8051;50.820;4.884;2022-09-17T15:37:52;13.80;99.90
15906;DHT22;8051;50.820;4.884;2022-09-17T15:40:26;13.80;99.90
15906;DHT22;8051;50.820;4.884;2022-09-17T15:43:01;13.60;99.90
15906;DHT22;8051;50.820;4.884;2022-09-17T15:45:30;13.40;99.90
15906;DHT22;8051;50.820;4.884;2022-09-17T15:47:58;13.20;99.90
15906;DHT22;8051;50.820;4.884;2022-09-17T15:50:28;13.20;99.90
15906;DHT22;8051;50.820;4.884;2022-09-17T15:53:12;13.20;99.90
15906;DHT22;8051;50.820;4.884;2022-09-17T15:55:41;13.20;99.90
15906;DHT22;8051;50.820;4.884;2022-09-17T15:58:24;13.20;99.90
15906;DHT22;8051;50.820;4.884;2022-09-17T16:04:26;13.20;99.90
15906;DHT22;8051;50.820;4.884;2022-09-17T16:07:00;13.20;99.90
15906;DHT22;8051;50.820;4.884;2022-09-17T16:09:46;13.20;99.90
15906;DHT22;8051;50.820;4.884;2022-09-17T16:12:16;13.20;99.90
15906;DHT22;8051;50.820;4.884;2022-09-17T16:14:44;13.10;99.90
15906;DHT22;8051;50.820;4.884;2022-09-17T16:17:29;12.90;99.90
15906;DHT22;8051;50.820;4.884;2022-09-17T16:20:10;12.70;99.90
15906;DHT22;8051;50.820;4.884;2022-09-17T16:22:39;12.70;99.90
15906;DHT22;8051;50.820;4.884;2022-09-17T16:25:07;12.60;99.90
15906;DHT22;8051;50.820;4.884;2022-09-17T16:27:41;12.60;99.90
15906;DHT22;8051;50.820;4.884;2022-09-17T16:30:13;12.60;99.90
15906;DHT22;8051;50.820;4.884;2022-09-17T16:32:41;12.60;99.90
15906;DHT22;8051;50.820;4.884;2022-09-17T16:35:11;12.60;99.90
15906;DHT22;8051;50.820;4.884;2022-09-17T16:37:38;12.60;99.90
15906;DHT22;8051;50.820;4.884;2022-09-17T16:40:09;12.60;99.90
15906;DHT22;8051;50.820;4.884;2022-09-17T16:42:36;12.60;99.90
15906;DHT22;8051;50.820;4.884;2022-09-17T16:45:04;12.50;99.90
15906;DHT22;8051;50.820;4.884;2022-09-17T16:47:33;12.40;99.90
15906;DHT22;8051;50.820;4.884;2022-09-17T16:50:02;12.30;99.90